createdAt,value
2023-02-03T00:02:12.256Z,1.73
2023-02-03T00:04:49.334Z,2.00
2023-02-03T00:07:16.511Z,1.70
2023-02-03T00:09:43.227Z,2.00
2023-02-03T00:12:11.187Z,1.63
2023-02-03T00:14:38.249Z,1.70
2023-02-03T00:17:06.092Z,1.87
2023-02-03T00:19:35.314Z,1.60
2023-02-03T00:22:02.108Z,2.10
2023-02-03T00:24:28.857Z,1.63
2023-02-03T00:26:55.791Z,2.00
2023-02-03T00:29:25.842Z,2.07
2023-02-03T00:31:53.959Z,1.70
2023-02-03T00:34:21.327Z,1.90
2023-02-03T00:36:48.406Z,1.60
2023-02-03T00:39:16.172Z,1.70
2023-02-03T00:41:42.915Z,1.43
2023-02-03T00:44:09.751Z,1.70
2023-02-03T00:46:36.507Z,1.50
2023-02-03T00:49:04.454Z,1.57
2023-02-03T00:51:31.477Z,1.80
2023-02-03T00:53:58.121Z,1.50
2023-02-03T00:56:24.918Z,1.90
2023-02-03T00:58:51.913Z,1.83
2023-02-03T01:01:18.681Z,1.60
2023-02-03T01:03:46.362Z,1.30
2023-02-03T01:06:19.620Z,1.50
2023-02-03T01:08:47.169Z,1.43
2023-02-03T01:11:17.315Z,1.53
2023-02-03T01:13:44.553Z,1.40
2023-02-03T01:16:15.609Z,1.40
2023-02-03T01:18:42.494Z,1.40
2023-02-03T01:21:18.119Z,1.67
2023-02-03T01:23:45.961Z,1.50
2023-02-03T01:26:17.314Z,1.40
2023-02-03T01:28:44.215Z,1.37
2023-02-03T01:31:12.936Z,1.40
2023-02-03T01:33:40.997Z,1.50
2023-02-03T01:36:09.327Z,1.47
2023-02-03T01:38:38.342Z,1.43
2023-02-03T01:41:08.053Z,1.60
2023-02-03T01:43:37.876Z,1.50
2023-02-03T01:46:27.573Z,1.43
2023-02-03T01:49:10.521Z,1.50
2023-02-03T01:51:40.509Z,1.60
2023-02-03T01:54:11.278Z,1.73
2023-02-03T01:56:42.386Z,1.40
2023-02-03T01:59:09.509Z,1.50
2023-02-03T02:01:37.254Z,1.50
2023-02-03T02:04:06.423Z,1.53
2023-02-03T02:06:33.214Z,1.27
2023-02-03T02:09:01.022Z,1.30
2023-02-03T02:11:28.503Z,1.27
2023-02-03T02:14:00.211Z,1.50
2023-02-03T02:16:54.950Z,1.30
2023-02-03T02:19:30.764Z,2.20
2023-02-03T02:22:11.347Z,1.80
2023-02-03T02:25:08.971Z,1.60
2023-02-03T02:28:00.725Z,1.47
2023-02-03T02:30:51.377Z,1.33
2023-02-03T02:33:23.769Z,1.73
2023-02-03T02:35:59.051Z,1.50
2023-02-03T02:38:41.444Z,1.60
2023-02-03T02:41:11.149Z,1.80
2023-02-03T02:43:44.466Z,1.83
2023-02-03T02:46:24.998Z,1.77
2023-02-03T02:49:06.926Z,1.67
2023-02-03T02:51:34.754Z,1.50
2023-02-03T02:54:06.237Z,1.60
2023-02-03T02:56:35.075Z,1.97
2023-02-03T02:59:05.044Z,1.70
2023-02-03T03:01:32.073Z,1.80
2023-02-03T03:04:01.965Z,1.83
2023-02-03T03:06:50.832Z,1.73
2023-02-03T03:09:23.820Z,1.93
2023-02-03T03:11:56.013Z,1.70
2023-02-03T03:14:25.297Z,1.90
2023-02-03T03:17:01.030Z,1.80
2023-02-03T03:19:35.276Z,1.90
2023-02-03T03:22:06.103Z,1.70
2023-02-03T03:24:46.260Z,1.57
2023-02-03T03:27:26.568Z,1.67
2023-02-03T03:30:23.841Z,1.93
2023-02-03T03:32:51.295Z,1.77
2023-02-03T03:35:18.440Z,1.67
2023-02-03T03:37:53.367Z,1.80
2023-02-03T03:40:31.853Z,1.87
2023-02-03T03:43:01.474Z,1.70
2023-02-03T03:45:45.908Z,1.63
2023-02-03T03:48:21.807Z,1.90
2023-02-03T03:51:00.252Z,1.90
2023-02-03T03:53:30.562Z,1.73
2023-02-03T03:56:01.149Z,1.60
2023-02-03T03:58:32.124Z,1.73
2023-02-03T04:01:02.086Z,1.77
2023-02-03T04:03:52.542Z,1.90
2023-02-03T04:06:19.499Z,1.63
2023-02-03T04:08:46.189Z,1.57
2023-02-03T04:11:32.835Z,1.80
2023-02-03T04:13:59.617Z,1.83
2023-02-03T04:16:26.379Z,2.00
2023-02-03T04:18:53.088Z,2.03
2023-02-03T04:21:19.789Z,1.40
2023-02-03T04:23:46.539Z,1.77
2023-02-03T04:26:13.480Z,1.60
2023-02-03T04:28:40.159Z,1.53
2023-02-03T04:31:07.008Z,1.60
2023-02-03T04:33:33.703Z,1.50
2023-02-03T04:36:00.552Z,1.70
2023-02-03T04:38:27.254Z,1.40
2023-02-03T04:40:54.165Z,1.80
2023-02-03T04:43:20.873Z,1.27
2023-02-03T04:45:47.658Z,1.43
2023-02-03T04:48:14.338Z,1.50
2023-02-03T04:50:41.072Z,1.50
2023-02-03T04:53:07.829Z,1.50
2023-02-03T04:55:34.500Z,1.50
2023-02-03T04:58:01.735Z,1.60
2023-02-03T05:00:29.499Z,1.53
2023-02-03T05:02:56.412Z,1.53
2023-02-03T05:05:23.065Z,1.30
2023-02-03T05:07:49.705Z,1.50
2023-02-03T05:10:16.483Z,1.60
2023-02-03T05:12:43.928Z,1.33
2023-02-03T05:15:10.913Z,1.40
2023-02-03T05:17:39.919Z,1.43
2023-02-03T05:20:07.553Z,1.53
2023-02-03T05:22:36.137Z,1.43
2023-02-03T05:25:03.328Z,1.27
2023-02-03T05:27:31.613Z,1.40
2023-02-03T05:29:59.832Z,1.30
2023-02-03T05:32:27.223Z,1.50
2023-02-03T05:34:53.907Z,1.30
2023-02-03T05:37:20.647Z,1.37
2023-02-03T05:39:47.351Z,1.47
2023-02-03T05:42:14.081Z,1.50
2023-02-03T05:44:41.350Z,1.43
2023-02-03T05:47:08.298Z,1.53
2023-02-03T05:49:35.124Z,1.50
2023-02-03T05:52:01.841Z,1.30
2023-02-03T05:54:28.591Z,1.53
2023-02-03T05:56:55.460Z,1.50
2023-02-03T05:59:22.170Z,1.57
2023-02-03T06:01:48.905Z,1.70
2023-02-03T06:04:15.799Z,1.50
2023-02-03T06:06:42.530Z,1.60
2023-02-03T06:09:09.418Z,1.70
2023-02-03T06:11:36.760Z,1.60
2023-02-03T06:14:03.972Z,2.10
2023-02-03T06:16:30.798Z,1.40
2023-02-03T06:19:01.063Z,1.57
2023-02-03T06:21:28.557Z,1.53
2023-02-03T06:23:56.597Z,1.53
2023-02-03T06:26:23.821Z,1.67
2023-02-03T06:28:50.480Z,1.70
2023-02-03T06:31:17.348Z,1.83
2023-02-03T06:33:44.756Z,1.60
2023-02-03T06:36:11.793Z,1.43
2023-02-03T06:38:38.552Z,1.80
2023-02-03T06:41:05.503Z,1.87
2023-02-03T06:43:32.178Z,1.73
2023-02-03T06:45:59.086Z,1.60
2023-02-03T06:48:25.829Z,1.50
2023-02-03T06:50:52.611Z,1.80
2023-02-03T06:53:19.358Z,1.70
2023-02-03T06:55:47.969Z,1.60
2023-02-03T06:58:15.020Z,1.50
2023-02-03T07:00:41.718Z,1.63
2023-02-03T07:03:08.362Z,2.20
2023-02-03T07:05:36.813Z,1.80
2023-02-03T07:08:03.649Z,1.80
2023-02-03T07:10:30.690Z,1.40
2023-02-03T07:13:02.961Z,1.80
2023-02-03T07:15:29.665Z,1.70
2023-02-03T07:17:56.766Z,1.80
2023-02-03T07:20:24.726Z,2.03
2023-02-03T07:22:56.108Z,1.73
2023-02-03T07:25:24.316Z,1.80
2023-02-03T07:27:51.267Z,1.60
2023-02-03T07:30:18.544Z,1.90
2023-02-03T07:32:52.550Z,1.50
2023-02-03T07:35:20.136Z,1.63
2023-02-03T07:37:46.995Z,1.60
2023-02-03T07:40:14.547Z,1.40
2023-02-03T07:42:47.685Z,1.80
2023-02-03T07:45:16.455Z,1.80
2023-02-03T07:47:44.122Z,1.60
2023-02-03T07:50:12.067Z,1.97
2023-02-03T07:52:39.179Z,1.90
2023-02-03T07:55:06.227Z,1.83
2023-02-03T07:57:33.026Z,2.00
2023-02-03T07:59:59.704Z,1.43
2023-02-03T08:02:26.679Z,1.60
2023-02-03T08:04:53.819Z,1.50
2023-02-03T08:07:20.495Z,1.57
2023-02-03T08:09:47.550Z,1.97
2023-02-03T08:12:14.331Z,2.00
2023-02-03T08:14:41.089Z,1.97
2023-02-03T08:17:08.046Z,1.67
2023-02-03T08:19:35.311Z,2.00
2023-02-03T08:22:02.841Z,1.80
2023-02-03T08:24:29.580Z,2.17
2023-02-03T08:26:56.282Z,1.90
2023-02-03T08:29:23.083Z,1.80
2023-02-03T08:31:49.919Z,2.10
2023-02-03T08:34:16.783Z,2.10
2023-02-03T08:36:44.148Z,2.20
2023-02-03T08:39:11.568Z,2.13
2023-02-03T08:41:38.828Z,3.10
2023-02-03T08:44:05.642Z,1.93
2023-02-03T08:46:33.174Z,2.07
2023-02-03T08:49:02.796Z,2.10
2023-02-03T08:51:30.314Z,2.30
2023-02-03T08:53:57.156Z,2.70
2023-02-03T08:56:26.326Z,2.00
2023-02-03T08:58:55.009Z,2.20
2023-02-03T09:01:22.999Z,2.10
2023-02-03T09:03:49.809Z,2.00
2023-02-03T09:06:16.789Z,1.80
2023-02-03T09:08:44.474Z,1.90
2023-02-03T09:11:13.072Z,2.10
2023-02-03T09:13:40.822Z,2.13
2023-02-03T09:16:08.705Z,2.20
2023-02-03T09:18:35.644Z,2.40
2023-02-03T09:21:13.887Z,2.13
2023-02-03T09:23:47.708Z,2.07
2023-02-03T09:26:15.315Z,2.23
2023-02-03T09:28:42.413Z,1.93
2023-02-03T09:31:12.004Z,2.50
2023-02-03T09:33:39.696Z,2.23
2023-02-03T09:36:07.944Z,1.90
2023-02-03T09:38:35.094Z,2.27
2023-02-03T09:41:12.182Z,1.87
2023-02-03T09:43:48.623Z,2.23
2023-02-03T09:46:25.937Z,2.20
2023-02-03T09:49:07.831Z,2.23
2023-02-03T09:52:02.990Z,2.47
2023-02-03T09:54:35.518Z,2.43
2023-02-03T09:57:09.717Z,2.37
2023-02-03T09:59:36.685Z,2.50
2023-02-03T10:02:47.749Z,2.20
2023-02-03T10:05:35.163Z,2.00
2023-02-03T10:08:12.507Z,2.00
2023-02-03T10:10:42.246Z,2.10
2023-02-03T10:13:21.692Z,1.80
2023-02-03T10:16:11.278Z,2.17
2023-02-03T10:18:47.218Z,2.67
2023-02-03T10:21:35.772Z,1.70
2023-02-03T10:24:09.098Z,1.90
2023-02-03T10:26:37.083Z,1.50
2023-02-03T10:29:18.128Z,1.60
2023-02-03T10:31:47.523Z,1.80
2023-02-03T10:34:16.666Z,2.67
2023-02-03T10:36:54.933Z,1.90
2023-02-03T10:39:47.879Z,1.90
2023-02-03T10:42:16.079Z,1.83
2023-02-03T10:44:48.489Z,1.80
2023-02-03T10:47:34.686Z,1.63
2023-02-03T10:50:06.467Z,2.37
2023-02-03T10:52:35.629Z,1.83
2023-02-03T10:55:08.310Z,2.03
2023-02-03T10:57:39.462Z,1.93
2023-02-03T11:00:22.435Z,1.60
2023-02-03T11:03:08.054Z,1.60
2023-02-03T11:05:36.347Z,1.77
2023-02-03T11:08:03.254Z,1.70
2023-02-03T11:10:39.107Z,1.90
2023-02-03T11:13:23.261Z,2.00
2023-02-03T11:15:56.117Z,1.70
2023-02-03T11:18:34.825Z,1.83
2023-02-03T11:21:29.783Z,1.60
2023-02-03T11:24:26.411Z,1.97
2023-02-03T11:27:07.080Z,1.97
2023-02-03T11:29:49.407Z,1.43
2023-02-03T11:32:18.318Z,1.47
2023-02-03T11:35:00.866Z,1.50
2023-02-03T11:37:27.663Z,1.30
2023-02-03T11:40:07.717Z,1.50
2023-02-03T11:42:43.775Z,1.57
2023-02-03T11:45:44.428Z,1.50
2023-02-03T11:48:11.074Z,1.40
2023-02-03T11:51:02.072Z,1.47
2023-02-03T11:53:57.700Z,1.60
2023-02-03T11:57:09.744Z,1.70
2023-02-03T11:59:48.884Z,1.63
2023-02-03T12:02:42.670Z,1.90
2023-02-03T12:05:27.865Z,1.60
2023-02-03T12:07:57.327Z,1.47
2023-02-03T12:10:27.463Z,1.53
2023-02-03T12:13:03.509Z,1.37
2023-02-03T12:15:43.786Z,1.57
2023-02-03T12:18:33.408Z,1.43
2023-02-03T12:21:22.389Z,1.30
2023-02-03T12:24:04.599Z,1.50
2023-02-03T12:26:38.187Z,1.30
2023-02-03T12:29:31.666Z,1.33
2023-02-03T12:32:21.216Z,1.43
2023-02-03T12:34:57.027Z,1.50
2023-02-03T12:37:28.423Z,1.30
2023-02-03T12:40:05.223Z,1.60
2023-02-03T12:42:49.867Z,2.17
2023-02-03T12:45:25.440Z,1.23
2023-02-03T12:48:02.413Z,1.70
2023-02-03T12:50:42.310Z,1.50
2023-02-03T12:53:14.956Z,1.77
2023-02-03T12:55:47.388Z,1.60
2023-02-03T12:58:21.883Z,1.60
2023-02-03T13:01:14.318Z,1.70
2023-02-03T13:04:00.945Z,1.43
2023-02-03T13:06:48.763Z,1.40
2023-02-03T13:09:38.582Z,1.50
2023-02-03T13:12:33.701Z,1.73
2023-02-03T13:15:18.962Z,1.63
2023-02-03T13:17:52.419Z,1.23
2023-02-03T13:20:24.961Z,1.70
2023-02-03T13:22:53.280Z,1.53
2023-02-03T13:25:47.189Z,1.53
2023-02-03T13:28:35.053Z,1.50
2023-02-03T13:31:19.932Z,1.60
2023-02-03T13:34:07.746Z,1.47
2023-02-03T13:36:58.671Z,1.60
2023-02-03T13:40:02.320Z,1.43
2023-02-03T13:42:34.230Z,1.90
2023-02-03T13:45:14.260Z,1.60
2023-02-03T13:47:47.138Z,1.40
2023-02-03T13:50:27.744Z,1.50
2023-02-03T13:53:00.231Z,1.40
2023-02-03T13:55:35.765Z,1.50
2023-02-03T13:58:04.355Z,1.53
2023-02-03T14:00:46.645Z,1.70
2023-02-03T14:03:25.738Z,2.27
2023-02-03T14:05:58.256Z,1.57
2023-02-03T14:08:28.125Z,1.60
2023-02-03T14:11:32.522Z,1.60
2023-02-03T14:14:08.041Z,1.90
2023-02-03T14:16:37.879Z,1.67
2023-02-03T14:19:07.160Z,1.80
2023-02-03T14:22:02.604Z,1.40
2023-02-03T14:24:39.771Z,1.87
2023-02-03T14:27:34.347Z,1.73
2023-02-03T14:30:09.222Z,1.80
2023-02-03T14:32:55.389Z,1.70
2023-02-03T14:35:31.533Z,1.67
2023-02-03T14:38:02.710Z,1.60
2023-02-03T14:40:56.962Z,1.67
2023-02-03T14:43:29.959Z,1.60
2023-02-03T14:46:08.499Z,1.10
2023-02-03T14:49:09.218Z,1.57
2023-02-03T14:51:50.971Z,1.70
2023-02-03T14:54:20.843Z,1.50
2023-02-03T14:57:19.575Z,1.60
2023-02-03T15:00:03.555Z,1.50
2023-02-03T15:02:31.418Z,1.40
2023-02-03T15:05:13.172Z,1.40
2023-02-03T15:07:52.403Z,1.40
2023-02-03T15:10:23.689Z,1.57
2023-02-03T15:12:52.682Z,1.57
2023-02-03T15:15:22.025Z,1.50
2023-02-03T15:17:50.277Z,1.50
2023-02-03T15:20:26.229Z,1.40
2023-02-03T15:22:53.132Z,1.30
2023-02-03T15:25:25.561Z,1.40
2023-02-03T15:27:52.743Z,1.30
2023-02-03T15:30:27.879Z,1.50
2023-02-03T15:33:05.971Z,1.33
2023-02-03T15:35:36.660Z,1.30
2023-02-03T15:38:08.265Z,2.03
2023-02-03T15:40:45.631Z,1.93
2023-02-03T15:43:19.022Z,1.73
2023-02-03T15:46:07.089Z,1.40
2023-02-03T15:48:38.004Z,1.90
2023-02-03T15:51:11.767Z,1.40
2023-02-03T15:53:48.076Z,1.50
2023-02-03T15:56:41.122Z,1.30
2023-02-03T15:59:46.365Z,1.40
2023-02-03T16:02:18.166Z,1.50
2023-02-03T16:04:46.139Z,1.50
2023-02-03T16:07:23.120Z,1.40
2023-02-03T16:09:53.558Z,1.40
2023-02-03T16:12:34.111Z,1.20
2023-02-03T16:15:02.005Z,1.23
2023-02-03T16:17:36.935Z,1.30
2023-02-03T16:20:24.574Z,1.37
2023-02-03T16:23:00.376Z,1.37
2023-02-03T16:25:30.950Z,1.47
2023-02-03T16:28:25.724Z,1.50
2023-02-03T16:31:20.619Z,1.43
2023-02-03T16:34:08.431Z,1.40
2023-02-03T16:36:59.062Z,1.60
2023-02-03T16:39:45.550Z,1.40
2023-02-03T16:42:35.497Z,1.47
2023-02-03T16:45:21.576Z,1.50
2023-02-03T16:48:06.927Z,1.70
2023-02-03T16:51:10.831Z,1.60
2023-02-03T16:53:37.545Z,1.60
2023-02-03T16:56:05.197Z,1.73
2023-02-03T16:58:32.348Z,1.70
2023-02-03T17:01:00.697Z,1.90
2023-02-03T17:03:28.712Z,1.40
2023-02-03T17:05:57.365Z,1.50
2023-02-03T17:08:26.086Z,1.47
2023-02-03T17:10:53.179Z,1.90
2023-02-03T17:13:22.105Z,1.83
2023-02-03T17:15:54.504Z,1.90
2023-02-03T17:18:22.000Z,1.67
2023-02-03T17:20:48.801Z,1.60
2023-02-03T17:23:16.623Z,1.80
2023-02-03T17:25:48.873Z,2.13
2023-02-03T17:28:16.070Z,1.80
2023-02-03T17:30:43.154Z,2.00
2023-02-03T17:33:13.806Z,1.63
2023-02-03T17:35:45.323Z,1.90
2023-02-03T17:38:14.323Z,1.87
2023-02-03T17:54:29.622Z,2.07
2023-02-03T17:56:56.385Z,2.23
2023-02-03T17:59:23.334Z,2.13
2023-02-03T18:01:50.059Z,2.10
2023-02-03T18:04:16.827Z,1.63
2023-02-03T18:06:43.596Z,1.90
2023-02-03T18:09:13.911Z,1.77
2023-02-03T18:11:40.659Z,2.00
2023-02-03T18:14:07.385Z,2.73
2023-02-03T18:16:35.909Z,2.00
2023-02-03T18:19:08.779Z,1.80
2023-02-03T18:21:38.588Z,2.17
2023-02-03T18:24:06.038Z,1.80
2023-02-03T18:26:36.829Z,1.87
2023-02-03T18:29:05.643Z,1.77
2023-02-03T18:31:34.194Z,1.70
2023-02-03T18:34:03.129Z,1.60
2023-02-03T18:36:30.157Z,2.13
2023-02-03T18:38:56.965Z,2.00
2023-02-03T18:41:25.339Z,1.87
2023-02-03T18:43:52.416Z,2.10
2023-02-03T18:46:25.556Z,2.17
2023-02-03T18:48:52.727Z,2.00
2023-02-03T18:51:21.531Z,2.00
2023-02-03T18:53:49.265Z,2.27
2023-02-03T18:56:21.821Z,2.30
2023-02-03T18:58:48.928Z,2.13
2023-02-03T19:01:22.492Z,2.13
2023-02-03T19:03:49.393Z,2.47
2023-02-03T19:06:16.740Z,2.33
2023-02-03T19:08:43.464Z,2.20
2023-02-03T19:11:10.925Z,1.97
2023-02-03T19:13:37.919Z,2.13
2023-02-03T19:16:05.029Z,1.80
2023-02-03T19:18:32.984Z,2.10
2023-02-03T19:20:59.762Z,2.20
2023-02-03T19:23:26.728Z,2.23
2023-02-03T19:25:54.288Z,2.00
2023-02-03T19:28:30.420Z,2.33
2023-02-03T19:31:09.456Z,2.20
2023-02-03T19:33:36.981Z,2.30
2023-02-03T19:36:05.312Z,2.00
2023-02-03T19:38:32.116Z,2.20
2023-02-03T19:40:59.139Z,2.20
2023-02-03T19:43:25.800Z,2.50
2023-02-03T19:45:52.569Z,2.10
2023-02-03T19:48:19.572Z,2.30
2023-02-03T19:50:49.335Z,1.77
2023-02-03T19:53:17.497Z,2.37
2023-02-03T19:55:45.547Z,2.00
2023-02-03T19:58:13.576Z,2.33
2023-02-03T20:00:41.490Z,2.30
2023-02-03T20:03:08.340Z,2.13
2023-02-03T20:05:36.088Z,2.33
2023-02-03T20:08:03.330Z,2.47
2023-02-03T20:10:30.329Z,2.23
2023-02-03T20:12:57.233Z,2.10
2023-02-03T20:15:23.990Z,2.10
2023-02-03T20:17:50.754Z,2.13
2023-02-03T20:20:19.782Z,2.50
2023-02-03T20:22:47.420Z,1.80
2023-02-03T20:25:14.338Z,2.33
2023-02-03T20:27:41.327Z,2.20
2023-02-03T20:30:08.806Z,1.83
2023-02-03T20:32:36.637Z,2.07
2023-02-03T20:35:04.907Z,2.20
2023-02-03T20:37:32.074Z,2.20
2023-02-03T20:39:58.775Z,2.00
2023-02-03T20:42:25.515Z,1.80
2023-02-03T20:44:52.198Z,2.10
2023-02-03T20:47:19.146Z,1.80
2023-02-03T20:49:47.878Z,2.20
2023-02-03T20:52:17.379Z,2.23
2023-02-03T20:54:44.644Z,2.27
2023-02-03T20:57:17.916Z,1.90
2023-02-03T20:59:45.634Z,2.17
2023-02-03T21:02:31.226Z,2.23
2023-02-03T21:04:59.773Z,2.10
2023-02-03T21:07:30.795Z,2.10
2023-02-03T21:09:59.932Z,2.27
2023-02-03T21:12:28.474Z,2.37
2023-02-03T21:14:55.445Z,2.40
2023-02-03T21:17:27.004Z,2.90
2023-02-03T21:19:54.920Z,2.23
2023-02-03T21:22:24.847Z,2.40
2023-02-03T21:24:56.971Z,2.63
2023-02-03T21:27:33.438Z,2.80
2023-02-03T21:30:02.616Z,2.70
2023-02-03T21:32:40.345Z,2.90
2023-02-03T21:35:24.245Z,3.03
2023-02-03T21:37:55.813Z,2.40
2023-02-03T21:40:26.689Z,2.60
2023-02-03T21:42:55.314Z,2.73
2023-02-03T21:45:24.217Z,2.77
2023-02-03T21:47:54.398Z,2.80
2023-02-03T21:50:33.283Z,3.03
2023-02-03T21:53:09.081Z,2.93
2023-02-03T21:55:40.569Z,2.60
2023-02-03T21:58:12.985Z,3.23
2023-02-03T22:00:48.547Z,2.77
2023-02-03T22:03:49.047Z,3.37
2023-02-03T22:06:27.875Z,2.83
2023-02-03T22:08:58.776Z,3.07
2023-02-03T22:11:28.751Z,3.10
2023-02-03T22:13:57.161Z,3.40
2023-02-03T22:16:24.040Z,3.33
2023-02-03T22:18:51.602Z,2.87
2023-02-03T22:21:18.943Z,3.60
2023-02-03T22:23:45.786Z,3.03
2023-02-03T22:26:13.686Z,3.40
2023-02-03T22:28:40.694Z,3.07
2023-02-03T22:31:09.059Z,3.53
2023-02-03T22:33:36.099Z,3.13
2023-02-03T22:36:03.461Z,3.43
2023-02-03T22:38:30.835Z,3.60
2023-02-03T22:40:57.674Z,3.20
2023-02-03T22:43:25.162Z,3.67
2023-02-03T22:45:52.474Z,3.50
2023-02-03T22:48:19.383Z,3.93
2023-02-03T22:50:46.166Z,3.63
2023-02-03T22:53:13.080Z,3.97
2023-02-03T22:55:40.128Z,3.90
2023-02-03T22:58:07.992Z,3.50
2023-02-03T23:00:35.482Z,3.47
2023-02-03T23:03:02.560Z,3.33
2023-02-03T23:05:29.591Z,3.27
2023-02-03T23:07:56.286Z,3.63
2023-02-03T23:10:26.222Z,3.83
2023-02-03T23:12:52.880Z,3.67
2023-02-03T23:15:19.820Z,3.70
2023-02-03T23:17:46.645Z,3.43
2023-02-03T23:20:15.158Z,4.20
2023-02-03T23:22:42.199Z,4.30
2023-02-03T23:25:09.607Z,5.00
2023-02-03T23:27:36.483Z,4.60
2023-02-03T23:30:04.303Z,3.80
2023-02-03T23:32:33.248Z,4.60
2023-02-03T23:35:19.517Z,4.40
2023-02-03T23:37:46.752Z,4.93
2023-02-03T23:40:13.913Z,5.57
2023-02-03T23:42:40.771Z,5.47
2023-02-03T23:45:11.663Z,5.30
2023-02-03T23:47:40.326Z,5.43
2023-02-03T23:50:09.208Z,5.37
2023-02-03T23:52:36.231Z,5.63
2023-02-03T23:55:08.086Z,6.40
2023-02-03T23:57:35.308Z,5.93
